Time;durP1;ratioP1;P1;durP2;ratioP2;P2;SDS_P1;SDS_P2;PMS_P1;PMS_P2;Temp;Humidity;BMP_temperature;BMP_pressure;BME280_temperature;BME280_humidity;BME280_pressure;Samples;Min_cycle;Max_cycle;Signal;HPM_P1;HPM_P2
2023/05/03 00:01:42;;;;;;;;;;;13.70;96.10;;;;;;4938195;29;19926;-96
2023/05/03 00:04:09;;;;;;;;;;;13.70;96.20;;;;;;4955005;29;20002;-96
2023/05/03 00:06:38;;;;;;;;;;;13.70;96.20;;;;;;4937724;29;20351;-96
2023/05/03 00:09:03;;;;;;;;;;;13.60;96.30;;;;;;4937622;29;20006;-96
2023/05/03 00:11:30;;;;;;;;;;;13.60;96.30;;;;;;4937362;29;19911;-96
2023/05/03 00:13:55;;;;;;;;;;;13.60;96.30;;;;;;4937573;29;19911;-96
2023/05/03 00:16:22;;;;;;;;;;;13.60;96.20;;;;;;4937344;29;19941;-96
2023/05/03 00:18:48;;;;;;;;;;;13.60;96.10;;;;;;4937953;29;19918;-96
2023/05/03 00:21:14;;;;;;;;;;;13.60;96.10;;;;;;4937654;29;19911;-96
2023/05/03 00:23:40;;;;;;;;;;;13.70;95.90;;;;;;4938321;29;19919;-96
2023/05/03 00:26:06;;;;;;;;;;;13.60;95.80;;;;;;4937773;29;19911;-96
2023/05/03 00:28:32;;;;;;;;;;;13.60;95.70;;;;;;4937237;29;19911;-96
2023/05/03 00:31:05;;;;;;;;;;;13.70;95.60;;;;;;4937719;29;19911;-96
2023/05/03 00:33:31;;;;;;;;;;;13.70;95.50;;;;;;4938390;29;19911;-96
2023/05/03 00:35:57;;;;;;;;;;;13.60;95.50;;;;;;4938235;29;19915;-96
2023/05/03 00:38:23;;;;;;;;;;;13.70;95.40;;;;;;4938791;29;19961;-96
2023/05/03 00:40:53;;;;;;;;;;;13.70;95.30;;;;;;4937835;29;19917;-96
2023/05/03 00:43:19;;;;;;;;;;;13.80;95.20;;;;;;4938824;29;19917;-96
2023/05/03 00:45:49;;;;;;;;;;;13.80;95.10;;;;;;4940132;29;19921;-96
2023/05/03 00:48:17;;;;;;;;;;;13.90;95.10;;;;;;4940157;29;19914;-96
2023/05/03 00:50:43;;;;;;;;;;;13.90;95.00;;;;;;4940530;29;19910;-96
2023/05/03 00:53:17;;;;;;;;;;;13.90;95.20;;;;;;4939760;29;19911;-96
2023/05/03 00:55:47;;;;;;;;;;;13.90;95.10;;;;;;4940274;29;19915;-96
2023/05/03 00:58:13;;;;;;;;;;;13.90;95.10;;;;;;4940849;29;19911;-97
2023/05/03 01:00:40;;;;;;;;;;;14.00;95.00;;;;;;4940097;29;19942;-96
2023/05/03 01:03:11;;;;;;;;;;;14.00;95.10;;;;;;4956926;29;19918;-96
2023/05/03 01:05:46;;;;;;;;;;;13.90;95.10;;;;;;4938933;29;19911;-97
2023/05/03 01:08:23;;;;;;;;;;;13.90;95.10;;;;;;4938636;29;19942;-96
2023/05/03 01:11:03;;;;;;;;;;;13.90;95.20;;;;;;4939717;29;19922;-96
2023/05/03 01:13:42;;;;;;;;;;;14.00;95.20;;;;;;4939517;29;19911;-96
2023/05/03 01:16:15;;;;;;;;;;;14.00;95.10;;;;;;4939829;29;19918;-96
2023/05/03 01:18:45;;;;;;;;;;;14.00;94.90;;;;;;4938987;29;20299;-96
2023/05/03 01:21:13;;;;;;;;;;;14.00;95.10;;;;;;4939985;29;19970;-96
2023/05/03 01:23:45;;;;;;;;;;;14.00;95.10;;;;;;4939186;29;19934;-96
2023/05/03 01:26:15;;;;;;;;;;;14.00;94.90;;;;;;4939838;29;19921;-96
2023/05/03 01:28:44;;;;;;;;;;;14.00;94.90;;;;;;4939954;29;19917;-96
2023/05/03 01:31:15;;;;;;;;;;;14.00;94.80;;;;;;4940408;29;20430;-96
2023/05/03 01:33:48;;;;;;;;;;;13.90;94.80;;;;;;4939681;29;20001;-96
2023/05/03 01:36:25;;;;;;;;;;;13.90;94.90;;;;;;4939806;29;19986;-96
2023/05/03 01:38:52;;;;;;;;;;;13.90;94.90;;;;;;4939828;29;19915;-96
2023/05/03 01:41:27;;;;;;;;;;;13.90;94.90;;;;;;4955807;29;19911;-96
2023/05/03 01:43:54;;;;;;;;;;;13.90;95.00;;;;;;4939059;29;19918;-96
2023/05/03 01:46:21;;;;;;;;;;;13.90;95.10;;;;;;4939901;29;19911;-96
2023/05/03 01:48:47;;;;;;;;;;;13.90;95.00;;;;;;4938937;29;19911;-96
2023/05/03 01:51:13;;;;;;;;;;;13.90;95.20;;;;;;4939291;29;19935;-96
2023/05/03 01:53:40;;;;;;;;;;;13.90;95.20;;;;;;4938728;29;19911;-96
2023/05/03 01:56:09;;;;;;;;;;;13.90;95.10;;;;;;4938956;29;19915;-96
2023/05/03 01:58:35;;;;;;;;;;;13.90;95.20;;;;;;4938058;29;20552;-96
2023/05/03 02:01:06;;;;;;;;;;;13.90;95.30;;;;;;4938267;29;19895;-96
2023/05/03 02:03:35;;;;;;;;;;;13.90;95.30;;;;;;4938316;29;19911;-96
2023/05/03 02:06:01;;;;;;;;;;;13.90;95.40;;;;;;4954121;29;19911;-96
2023/05/03 02:08:30;;;;;;;;;;;13.90;95.40;;;;;;4919354;29;19954;-96
2023/05/03 02:10:56;;;;;;;;;;;13.90;95.40;;;;;;4919307;29;19936;-96
2023/05/03 02:13:25;;;;;;;;;;;13.90;95.30;;;;;;4918669;29;19915;-96
2023/05/03 02:15:51;;;;;;;;;;;13.90;95.30;;;;;;4919114;29;19983;-96
2023/05/03 02:18:17;;;;;;;;;;;13.90;95.30;;;;;;4919218;29;19915;-96
2023/05/03 02:20:46;;;;;;;;;;;13.90;95.20;;;;;;4919080;29;19935;-96
2023/05/03 02:23:12;;;;;;;;;;;13.90;95.20;;;;;;4919343;29;19958;-96
2023/05/03 02:25:39;;;;;;;;;;;13.90;95.20;;;;;;4919195;29;19911;-96
2023/05/03 02:28:07;;;;;;;;;;;13.80;95.20;;;;;;4919007;29;19966;-96
2023/05/03 02:30:37;;;;;;;;;;;13.80;95.20;;;;;;4922296;29;20375;-96
2023/05/03 02:33:03;;;;;;;;;;;13.70;95.10;;;;;;4922371;29;19919;-96
2023/05/03 02:35:29;;;;;;;;;;;13.80;95.20;;;;;;4922218;29;19938;-96
2023/05/03 02:37:56;;;;;;;;;;;13.80;95.30;;;;;;4922185;29;19911;-96
2023/05/03 02:40:22;;;;;;;;;;;13.80;95.30;;;;;;4922721;29;19918;-96
2023/05/03 02:42:48;;;;;;;;;;;13.80;95.10;;;;;;4922873;29;19911;-96
2023/05/03 02:45:15;;;;;;;;;;;13.80;94.90;;;;;;4921486;29;20021;-96
2023/05/03 02:47:41;;;;;;;;;;;13.80;95.00;;;;;;4921717;29;19911;-96
2023/05/03 02:50:07;;;;;;;;;;;13.80;94.90;;;;;;4920476;29;19917;-96
2023/05/03 02:52:36;;;;;;;;;;;13.80;94.50;;;;;;4919914;29;19911;-96
2023/05/03 02:55:05;;;;;;;;;;;13.70;94.50;;;;;;4937102;29;19935;-96
2023/05/03 02:57:31;;;;;;;;;;;13.70;94.40;;;;;;4919684;29;20043;-96
2023/05/03 02:59:57;;;;;;;;;;;13.60;94.60;;;;;;4919389;29;20288;-96
2023/05/03 03:02:23;;;;;;;;;;;13.60;94.50;;;;;;4920015;29;20325;-96
2023/05/03 03:04:49;;;;;;;;;;;13.70;94.40;;;;;;4936911;29;19911;-96
2023/05/03 03:07:15;;;;;;;;;;;13.70;94.50;;;;;;4929448;29;19923;-96
2023/05/03 03:09:41;;;;;;;;;;;13.60;94.70;;;;;;4938367;29;19911;-96
2023/05/03 03:12:07;;;;;;;;;;;13.60;94.80;;;;;;4939526;29;20006;-96
2023/05/03 03:14:33;;;;;;;;;;;13.60;94.70;;;;;;4938747;29;20002;-96
2023/05/03 03:17:00;;;;;;;;;;;13.60;94.70;;;;;;4939130;29;19977;-96
2023/05/03 03:19:26;;;;;;;;;;;13.60;94.70;;;;;;4939587;29;19982;-96
2023/05/03 03:21:55;;;;;;;;;;;13.60;94.50;;;;;;4939302;29;19967;-96
2023/05/03 03:24:21;;;;;;;;;;;13.60;94.60;;;;;;4939586;29;19911;-96
2023/05/03 03:26:47;;;;;;;;;;;13.70;94.60;;;;;;4956415;29;19911;-96
2023/05/03 03:29:13;;;;;;;;;;;13.70;94.40;;;;;;4939221;29;19911;-96
2023/05/03 03:31:39;;;;;;;;;;;13.60;94.30;;;;;;4937583;29;19911;-96
2023/05/03 03:34:05;;;;;;;;;;;13.50;94.30;;;;;;4937187;29;19922;-96
2023/05/03 03:36:33;;;;;;;;;;;13.40;94.30;;;;;;4937739;29;19914;-96
2023/05/03 03:38:59;;;;;;;;;;;13.40;94.70;;;;;;4937867;29;19917;-96
2023/05/03 03:41:25;;;;;;;;;;;13.40;94.50;;;;;;4936463;29;19915;-96
2023/05/03 03:43:51;;;;;;;;;;;13.40;94.50;;;;;;4937358;29;20069;-96
2023/05/03 03:46:17;;;;;;;;;;;13.40;94.50;;;;;;4953954;29;19911;-96
2023/05/03 03:48:49;;;;;;;;;;;13.40;94.60;;;;;;4938010;29;19911;-96
2023/05/03 03:51:15;;;;;;;;;;;13.40;94.70;;;;;;4937872;29;19910;-96
2023/05/03 03:53:41;;;;;;;;;;;13.40;94.70;;;;;;4938068;29;19961;-96
2023/05/03 03:56:08;;;;;;;;;;;13.40;94.60;;;;;;4937924;29;19914;-96
2023/05/03 03:58:34;;;;;;;;;;;13.40;94.60;;;;;;4937481;29;19970;-96
2023/05/03 04:01:00;;;;;;;;;;;13.40;94.60;;;;;;4937687;29;19918;-96
2023/05/03 04:03:26;;;;;;;;;;;13.40;94.60;;;;;;4937374;29;19911;-96
2023/05/03 04:05:52;;;;;;;;;;;13.40;94.50;;;;;;4978558;23;19958;-96
2023/05/03 04:08:18;;;;;;;;;;;13.40;94.40;;;;;;4972426;28;19910;-96
2023/05/03 04:10:47;;;;;;;;;;;13.40;94.40;;;;;;4970864;29;19911;-96
2023/05/03 04:13:13;;;;;;;;;;;13.40;94.40;;;;;;4970352;29;19910;-96
2023/05/03 04:15:39;;;;;;;;;;;13.50;94.40;;;;;;4971645;28;19946;-96
2023/05/03 04:18:07;;;;;;;;;;;13.50;94.20;;;;;;4970506;29;19933;-96
2023/05/03 04:20:33;;;;;;;;;;;13.50;94.10;;;;;;4969146;29;19918;-96
2023/05/03 04:22:59;;;;;;;;;;;13.50;93.90;;;;;;4969646;29;19911;-96
2023/05/03 04:25:25;;;;;;;;;;;13.50;93.80;;;;;;4970555;28;19910;-96
2023/05/03 04:27:51;;;;;;;;;;;13.50;93.80;;;;;;4970814;29;19938;-96
2023/05/03 04:30:17;;;;;;;;;;;13.50;93.60;;;;;;4970430;28;20005;-96
2023/05/03 04:32:46;;;;;;;;;;;13.50;93.70;;;;;;4969759;28;19911;-96
2023/05/03 04:35:12;;;;;;;;;;;13.50;93.80;;;;;;4970250;28;20382;-96
2023/05/03 04:37:38;;;;;;;;;;;13.50;93.80;;;;;;4969325;29;19961;-96
2023/05/03 04:40:08;;;;;;;;;;;13.50;93.80;;;;;;4969964;29;19917;-96
2023/05/03 04:42:35;;;;;;;;;;;13.40;93.80;;;;;;4971086;28;19918;-96
2023/05/03 04:45:05;;;;;;;;;;;13.40;93.90;;;;;;4953336;29;19910;-96
2023/05/03 04:47:39;;;;;;;;;;;13.50;93.80;;;;;;4950910;29;19910;-96
2023/05/03 04:50:06;;;;;;;;;;;13.50;93.70;;;;;;4951025;29;19917;-96
2023/05/03 04:52:32;;;;;;;;;;;13.50;93.60;;;;;;4951826;29;19910;-96
2023/05/03 04:54:58;;;;;;;;;;;13.60;93.50;;;;;;4951740;29;19915;-96
2023/05/03 04:57:24;;;;;;;;;;;13.60;93.50;;;;;;4951204;29;19978;-96
2023/05/03 04:59:52;;;;;;;;;;;13.60;93.30;;;;;;4952233;29;19910;-96
2023/05/03 05:02:18;;;;;;;;;;;13.70;93.30;;;;;;4952830;29;19914;-96
2023/05/03 05:04:47;;;;;;;;;;;13.70;93.30;;;;;;4951301;29;20046;-96
2023/05/03 05:07:13;;;;;;;;;;;13.80;93.40;;;;;;4951550;29;19923;-96
2023/05/03 05:09:42;;;;;;;;;;;13.90;93.20;;;;;;4951443;29;19958;-96
2023/05/03 05:12:08;;;;;;;;;;;13.90;93.10;;;;;;4949103;29;19966;-96
2023/05/03 05:14:33;;;;;;;;;;;13.90;93.00;;;;;;4946731;29;19911;-96
2023/05/03 05:16:59;;;;;;;;;;;13.90;92.90;;;;;;4946075;29;19915;-96
2023/05/03 05:19:25;;;;;;;;;;;13.90;93.00;;;;;;4945060;29;19936;-96
2023/05/03 05:21:51;;;;;;;;;;;13.90;92.90;;;;;;4945927;28;19915;-96
2023/05/03 05:24:17;;;;;;;;;;;13.90;92.90;;;;;;4946320;29;19911;-96
2023/05/03 05:26:43;;;;;;;;;;;13.90;93.00;;;;;;4945015;29;20036;-96
2023/05/03 05:29:11;;;;;;;;;;;13.90;92.80;;;;;;4947248;29;19911;-96
2023/05/03 05:31:37;;;;;;;;;;;13.90;92.80;;;;;;4946881;29;19965;-96
2023/05/03 05:34:03;;;;;;;;;;;14.00;92.80;;;;;;4948227;29;19911;-96
2023/05/03 05:36:29;;;;;;;;;;;14.20;92.60;;;;;;4946899;29;19944;-96
2023/05/03 05:38:58;;;;;;;;;;;14.20;92.30;;;;;;4958466;29;19926;-96
2023/05/03 05:41:26;;;;;;;;;;;14.30;92.00;;;;;;4953571;29;19911;-96
2023/05/03 05:43:55;;;;;;;;;;;14.40;91.60;;;;;;4954220;29;19911;-96
2023/05/03 05:46:24;;;;;;;;;;;14.50;91.50;;;;;;4951811;29;19918;-96
2023/05/03 05:48:53;;;;;;;;;;;14.50;91.40;;;;;;4950100;29;19911;-96
2023/05/03 05:51:19;;;;;;;;;;;14.60;90.80;;;;;;4953725;29;19911;-96
2023/05/03 05:53:45;;;;;;;;;;;14.60;90.80;;;;;;4953550;29;19970;-96
2023/05/03 05:56:14;;;;;;;;;;;14.60;90.60;;;;;;4953994;29;19922;-96
2023/05/03 05:58:42;;;;;;;;;;;14.70;90.30;;;;;;4950593;29;19918;-96
2023/05/03 06:01:09;;;;;;;;;;;14.80;90.00;;;;;;4952044;29;19915;-96
2023/05/03 06:03:35;;;;;;;;;;;14.80;90.00;;;;;;4950453;29;19946;-96
2023/05/03 06:06:06;;;;;;;;;;;14.90;90.10;;;;;;4952509;29;19922;-96
2023/05/03 06:08:36;;;;;;;;;;;15.00;89.90;;;;;;4954903;29;19921;-96
2023/05/03 06:11:06;;;;;;;;;;;15.00;89.40;;;;;;4958744;28;19915;-96
2023/05/03 06:13:37;;;;;;;;;;;15.20;89.60;;;;;;4959989;29;19927;-96
2023/05/03 06:16:06;;;;;;;;;;;15.30;89.40;;;;;;4957618;29;19922;-96
2023/05/03 06:18:37;;;;;;;;;;;15.40;89.20;;;;;;4958585;28;19914;-96
2023/05/03 06:21:11;;;;;;;;;;;15.60;88.70;;;;;;4958405;29;19962;-97
2023/05/03 06:23:56;;;;;;;;;;;15.70;87.80;;;;;;4959375;29;19915;-96
2023/05/03 06:26:31;;;;;;;;;;;15.70;87.60;;;;;;4958704;29;19947;-96
2023/05/03 06:29:03;;;;;;;;;;;15.80;87.40;;;;;;4957559;29;19938;-96
2023/05/03 06:31:51;;;;;;;;;;;15.90;86.40;;;;;;4958893;28;19915;-96
2023/05/03 06:34:23;;;;;;;;;;;15.90;86.00;;;;;;4957210;29;19918;-96
2023/05/03 06:36:57;;;;;;;;;;;15.90;85.80;;;;;;4950507;29;19942;-96
2023/05/03 06:39:28;;;;;;;;;;;16.00;86.00;;;;;;4957173;29;19895;-96
2023/05/03 06:41:58;;;;;;;;;;;16.10;86.50;;;;;;4956588;29;19895;-96
2023/05/03 06:44:25;;;;;;;;;;;16.10;86.80;;;;;;4957559;29;19918;-96
2023/05/03 06:46:51;;;;;;;;;;;16.10;85.10;;;;;;4956197;29;19899;-96
2023/05/03 06:49:24;;;;;;;;;;;16.10;85.30;;;;;;4956002;29;19917;-96
2023/05/03 06:51:52;;;;;;;;;;;16.10;85.80;;;;;;4955583;29;19930;-96
2023/05/03 06:54:19;;;;;;;;;;;16.20;85.40;;;;;;4956028;29;19938;-96
2023/05/03 06:56:49;;;;;;;;;;;16.20;85.40;;;;;;4956152;29;19974;-96
2023/05/03 06:59:15;;;;;;;;;;;16.30;84.90;;;;;;4955886;29;19910;-96
2023/05/03 07:01:51;;;;;;;;;;;16.40;85.30;;;;;;4957085;29;19982;-96
2023/05/03 07:04:20;;;;;;;;;;;16.50;84.20;;;;;;4957626;29;19911;-96
2023/05/03 07:06:48;;;;;;;;;;;16.60;84.50;;;;;;4957386;29;19943;-96
2023/05/03 07:09:17;;;;;;;;;;;16.60;83.30;;;;;;4956792;29;19895;-96
2023/05/03 07:11:50;;;;;;;;;;;16.70;83.70;;;;;;4958584;29;19949;-96
2023/05/03 07:14:18;;;;;;;;;;;16.80;83.10;;;;;;4957666;29;19911;-96
2023/05/03 07:16:56;;;;;;;;;;;16.80;82.70;;;;;;4960299;28;19970;-96
2023/05/03 07:19:36;;;;;;;;;;;16.90;81.90;;;;;;4962223;28;19923;-96
2023/05/03 07:22:08;;;;;;;;;;;16.90;83.10;;;;;;4963671;29;19911;-96
2023/05/03 07:24:36;;;;;;;;;;;17.00;82.10;;;;;;4959854;28;19942;-96
2023/05/03 07:27:05;;;;;;;;;;;17.20;82.20;;;;;;4990634;23;19974;-96
2023/05/03 07:29:34;;;;;;;;;;;17.20;80.30;;;;;;4975214;29;19918;-96
2023/05/03 07:32:00;;;;;;;;;;;17.30;80.40;;;;;;4972748;28;19918;-96
2023/05/03 07:34:26;;;;;;;;;;;17.30;81.10;;;;;;4942539;29;19911;-96
2023/05/03 07:39:27;;;;;;;;;;;17.40;79.90;;;;;;5096801;23;19927;-96
2023/05/03 07:41:52;;;;;;;;;;;17.50;81.40;;;;;;4937935;29;19918;-96
2023/05/03 07:44:18;;;;;;;;;;;17.60;81.90;;;;;;4935862;29;19917;-96
2023/05/03 07:46:43;;;;;;;;;;;17.60;81.50;;;;;;4934297;29;19911;-96
2023/05/03 07:49:09;;;;;;;;;;;17.70;82.30;;;;;;4953713;29;19911;-96
2023/05/03 07:51:35;;;;;;;;;;;17.70;80.50;;;;;;4937172;29;19935;-96
2023/05/03 07:54:01;;;;;;;;;;;17.80;81.00;;;;;;4937897;29;19921;-95
2023/05/03 07:56:27;;;;;;;;;;;17.70;80.20;;;;;;4935017;29;19962;-95
2023/05/03 07:58:52;;;;;;;;;;;17.70;80.50;;;;;;4933815;29;19911;-96
2023/05/03 08:01:19;;;;;;;;;;;17.60;79.90;;;;;;4934786;29;19961;-96
2023/05/03 08:03:44;;;;;;;;;;;17.60;80.10;;;;;;4933885;29;19917;-96
2023/05/03 08:06:10;;;;;;;;;;;17.70;81.10;;;;;;4936788;29;20357;-96
2023/05/03 08:08:37;;;;;;;;;;;17.80;80.90;;;;;;4936491;29;19942;-95
2023/05/03 08:11:02;;;;;;;;;;;17.80;80.80;;;;;;4951005;29;19934;-96
2023/05/03 08:13:28;;;;;;;;;;;17.90;80.00;;;;;;4951822;29;19911;-96
2023/05/03 08:15:54;;;;;;;;;;;18.10;78.50;;;;;;4954642;29;19915;-96
2023/05/03 08:18:20;;;;;;;;;;;18.10;77.40;;;;;;4940747;29;19895;-96
2023/05/03 08:20:57;;;;;;;;;;;18.10;76.40;;;;;;4943266;29;19911;-96
2023/05/03 08:23:28;;;;;;;;;;;18.10;78.40;;;;;;4959393;29;19942;-96
2023/05/03 08:26:03;;;;;;;;;;;18.20;78.70;;;;;;4944904;29;19950;-96
2023/05/03 08:34:14;;;;;;;;;;;18.30;79.90;;;;;;4598529;26;19922;-96
2023/05/03 08:36:43;;;;;;;;;;;18.30;82.40;;;;;;4945161;29;19903;-97
2023/05/03 08:39:10;;;;;;;;;;;18.40;81.40;;;;;;4943535;29;19922;-96
2023/05/03 08:41:41;;;;;;;;;;;18.40;81.10;;;;;;4943286;29;19911;-96
2023/05/03 08:44:24;;;;;;;;;;;18.40;81.50;;;;;;4960381;29;19935;-96
2023/05/03 08:46:54;;;;;;;;;;;18.30;80.70;;;;;;4943721;29;19943;-96
2023/05/03 08:49:34;;;;;;;;;;;18.30;79.90;;;;;;4959990;29;19911;-96
2023/05/03 08:52:00;;;;;;;;;;;18.40;77.50;;;;;;4942200;29;19918;-96
2023/05/03 08:54:28;;;;;;;;;;;18.40;76.00;;;;;;4959683;29;19911;-96
2023/05/03 08:57:01;;;;;;;;;;;18.50;75.80;;;;;;4943907;29;19919;-96
2023/05/03 08:59:36;;;;;;;;;;;18.60;74.80;;;;;;4961402;28;19899;-96
2023/05/03 09:02:09;;;;;;;;;;;18.80;74.70;;;;;;4945162;29;19919;-96
2023/05/03 09:04:43;;;;;;;;;;;18.80;73.90;;;;;;4957268;29;19921;-96
2023/05/03 09:07:15;;;;;;;;;;;19.00;74.50;;;;;;4926231;29;19922;-96
2023/05/03 09:09:48;;;;;;;;;;;19.10;73.90;;;;;;4941322;29;19895;-96
2023/05/03 09:12:32;;;;;;;;;;;19.20;75.70;;;;;;4941378;29;19970;-96
2023/05/03 09:14:59;;;;;;;;;;;19.30;74.80;;;;;;4957455;29;19918;-96
2023/05/03 09:17:32;;;;;;;;;;;19.50;75.00;;;;;;4940962;29;19926;-96
2023/05/03 09:19:59;;;;;;;;;;;19.50;75.30;;;;;;4938323;29;19911;-96
2023/05/03 09:22:26;;;;;;;;;;;19.40;73.50;;;;;;4937775;29;19911;-96
2023/05/03 09:24:53;;;;;;;;;;;19.30;73.50;;;;;;4939758;29;19910;-96
2023/05/03 09:27:23;;;;;;;;;;;19.30;74.70;;;;;;4940275;29;19915;-96
2023/05/03 09:29:49;;;;;;;;;;;19.30;70.20;;;;;;4942737;29;19950;-96
2023/05/03 09:32:19;;;;;;;;;;;19.30;73.40;;;;;;4939555;29;19910;-96
2023/05/03 09:34:46;;;;;;;;;;;19.40;70.00;;;;;;4924742;29;19934;-96
2023/05/03 09:37:37;;;;;;;;;;;19.50;71.20;;;;;;4941155;29;19966;-96
2023/05/03 09:40:18;;;;;;;;;;;19.60;71.70;;;;;;4941341;29;19899;-96
2023/05/03 10:11:28;;;;;;;;;;;20.60;63.30;;;;;;5492961;23;19949;-96
2023/05/03 10:14:11;;;;;;;;;;;20.70;62.50;;;;;;4963389;29;19905;-96
2023/05/03 10:16:49;;;;;;;;;;;20.80;63.00;;;;;;4951753;29;19907;-96
2023/05/03 10:19:59;;;;;;;;;;;20.90;61.60;;;;;;4977955;28;19906;-96
2023/05/03 10:22:33;;;;;;;;;;;21.00;60.90;;;;;;4940235;29;19971;-97
2023/05/03 10:25:18;;;;;;;;;;;21.10;60.30;;;;;;4939854;29;19923;-96
2023/05/03 10:28:07;;;;;;;;;;;21.30;60.50;;;;;;4924971;29;19925;-96
2023/05/03 12:52:56;;;;;;;;;;;27.20;41.60;;;;;;5404243;23;19911;-96
2023/05/03 14:58:54;;;;;;;;;;;26.50;40.00;;;;;;5759337;23;19932;-96
2023/05/03 15:01:20;;;;;;;;;;;26.10;41.70;;;;;;4939158;29;19980;-96
2023/05/03 15:03:45;;;;;;;;;;;26.00;42.90;;;;;;4938007;29;19911;-96
2023/05/03 15:06:11;;;;;;;;;;;26.20;41.40;;;;;;4933783;29;19934;-96
2023/05/03 15:08:40;;;;;;;;;;;26.50;38.90;;;;;;4933294;29;19997;-96
2023/05/03 15:11:06;;;;;;;;;;;26.60;39.00;;;;;;4932708;29;19918;-96
2023/05/03 15:13:32;;;;;;;;;;;26.00;39.40;;;;;;4934680;29;19910;-96
2023/05/03 15:16:02;;;;;;;;;;;25.70;41.00;;;;;;4937358;29;19974;-96
2023/05/03 15:18:28;;;;;;;;;;;25.10;40.60;;;;;;4937573;29;19911;-96
2023/05/03 15:20:53;;;;;;;;;;;24.90;42.40;;;;;;4937968;29;19938;-96
2023/05/03 15:23:19;;;;;;;;;;;25.30;41.70;;;;;;4937136;29;20015;-96
2023/05/03 15:25:45;;;;;;;;;;;25.50;40.40;;;;;;4936962;29;20367;-96
2023/05/03 15:28:13;;;;;;;;;;;25.80;40.30;;;;;;4937882;29;19914;-96
2023/05/03 15:30:39;;;;;;;;;;;26.00;39.10;;;;;;4935597;29;19911;-96
2023/05/03 15:33:09;;;;;;;;;;;25.80;39.40;;;;;;4946260;29;19927;-96
2023/05/03 15:35:39;;;;;;;;;;;25.10;39.90;;;;;;4922519;29;20394;-96
2023/05/03 15:38:13;;;;;;;;;;;24.90;42.00;;;;;;4935659;29;19911;-96
2023/05/03 15:40:40;;;;;;;;;;;24.70;42.80;;;;;;4921147;29;19919;-96
2023/05/03 15:43:09;;;;;;;;;;;24.80;43.90;;;;;;4922424;29;19912;-96
2023/05/03 15:45:44;;;;;;;;;;;24.60;43.00;;;;;;4926826;29;19950;-96
2023/05/03 16:03:55;;;;;;;;;;;24.30;45.50;;;;;;5103155;23;19950;-96
2023/05/03 16:06:33;;;;;;;;;;;24.70;44.10;;;;;;4981282;28;19966;-96
2023/05/03 16:09:15;;;;;;;;;;;;;;;;;;;;;
2023/05/03 16:11:47;;;;;;;;;;;25.40;41.30;;;;;;4981984;28;19930;-96
2023/05/03 16:14:31;;;;;;;;;;;25.40;41.50;;;;;;4982142;28;19934;-96
2023/05/03 16:17:07;;;;;;;;;;;25.30;40.60;;;;;;4955889;29;19906;-96
2023/05/03 16:20:04;;;;;;;;;;;25.10;43.20;;;;;;4965715;29;19962;-96
2023/05/03 19:21:42;;;;;;;;;;;17.80;64.50;;;;;;4176272;23;19950;-96
2023/05/03 19:24:15;;;;;;;;;;;17.80;64.50;;;;;;4965970;29;19905;-96
2023/05/03 19:26:43;;;;;;;;;;;17.60;64.80;;;;;;4965117;28;19894;-96
2023/05/03 19:29:16;;;;;;;;;;;17.60;64.90;;;;;;4981844;28;19922;-96
2023/05/03 19:31:48;;;;;;;;;;;17.40;65.20;;;;;;4965928;29;19907;-96
2023/05/03 19:34:26;;;;;;;;;;;17.40;65.10;;;;;;4946758;29;19895;-96
2023/05/03 19:37:01;;;;;;;;;;;17.30;64.60;;;;;;4963550;29;19946;-96
2023/05/03 19:39:34;;;;;;;;;;;17.30;65.30;;;;;;4946851;29;19895;-96
2023/05/03 19:42:16;;;;;;;;;;;17.30;65.20;;;;;;4946487;29;19939;-96
2023/05/03 19:45:04;;;;;;;;;;;17.20;65.00;;;;;;4962755;29;19979;-96
2023/05/03 19:47:43;;;;;;;;;;;17.20;64.80;;;;;;4963171;29;19938;-96
2023/05/03 19:50:39;;;;;;;;;;;17.10;66.00;;;;;;4962524;29;19910;-96
2023/05/03 19:53:07;;;;;;;;;;;17.10;66.00;;;;;;4946429;29;19911;-96
2023/05/03 19:55:40;;;;;;;;;;;17.10;66.80;;;;;;4946233;29;19935;-96
2023/05/03 19:58:18;;;;;;;;;;;17.00;67.20;;;;;;4963413;29;19906;-96
2023/05/03 20:00:53;;;;;;;;;;;16.80;68.60;;;;;;4946703;29;19906;-96
2023/05/03 20:03:34;;;;;;;;;;;16.50;70.50;;;;;;4963234;29;19914;-96
2023/05/03 20:06:13;;;;;;;;;;;16.40;73.50;;;;;;4953288;29;19958;-96
2023/05/03 20:27:58;;;;;;;;;;;15.50;75.00;;;;;;5036574;23;19911;-96
2023/05/03 20:38:42;;;;;;;;;;;15.40;74.20;;;;;;5566529;23;19917;-96
2023/05/03 20:41:17;;;;;;;;;;;15.40;74.80;;;;;;4946107;29;19926;-96
2023/05/03 20:43:50;;;;;;;;;;;15.40;75.40;;;;;;4959204;28;19906;-96
2023/05/03 21:01:56;;;;;;;;;;;14.80;80.50;;;;;;5799963;23;19923;-96
2023/05/03 21:04:35;;;;;;;;;;;14.90;78.70;;;;;;4962909;29;19927;-96
2023/05/03 21:07:09;;;;;;;;;;;14.80;82.40;;;;;;4980924;28;19970;-96
2023/05/03 21:46:19;;;;;;;;;;;14.00;82.20;;;;;;4955579;28;19937;-96
2023/05/03 21:57:39;;;;;;;;;;;14.10;82.00;;;;;;5964939;23;20783;-96
2023/05/03 22:00:19;;;;;;;;;;;14.00;82.30;;;;;;4979993;28;19918;-96
2023/05/03 22:02:55;;;;;;;;;;;14.00;82.30;;;;;;4971787;28;19926;-96
2023/05/03 22:05:27;;;;;;;;;;;13.80;82.80;;;;;;4961360;28;19910;-96
2023/05/03 22:08:06;;;;;;;;;;;13.80;82.30;;;;;;4979071;28;19921;-96
2023/05/03 22:10:55;;;;;;;;;;;13.80;82.80;;;;;;4980311;28;19967;-96
2023/05/03 22:13:29;;;;;;;;;;;13.90;83.70;;;;;;4977283;28;19901;-96
2023/05/03 22:16:21;;;;;;;;;;;13.80;84.20;;;;;;4963437;29;19907;-96
2023/05/03 22:18:58;;;;;;;;;;;13.80;83.60;;;;;;4962576;29;19898;-96
2023/05/03 22:21:43;;;;;;;;;;;13.90;83.60;;;;;;4939823;29;19905;-96
2023/05/03 22:24:33;;;;;;;;;;;13.90;83.70;;;;;;4959594;29;19899;-96
2023/05/03 22:27:04;;;;;;;;;;;13.80;83.00;;;;;;4963458;29;19910;-96
2023/05/03 22:29:51;;;;;;;;;;;13.80;83.10;;;;;;4978203;28;19898;-96
2023/05/03 22:32:19;;;;;;;;;;;13.80;83.50;;;;;;4959506;29;19915;-96
2023/05/03 22:34:52;;;;;;;;;;;13.80;84.20;;;;;;4943554;29;19923;-96
2023/05/03 22:37:32;;;;;;;;;;;13.90;83.40;;;;;;4960673;28;19906;-96
2023/05/03 22:40:03;;;;;;;;;;;13.80;83.20;;;;;;4943869;29;19899;-96
2023/05/03 22:42:45;;;;;;;;;;;13.80;82.70;;;;;;4944005;29;19915;-96
2023/05/03 22:45:15;;;;;;;;;;;13.80;82.30;;;;;;4928909;29;19934;-96
2023/05/03 22:47:53;;;;;;;;;;;13.80;82.50;;;;;;4961982;28;19898;-96
2023/05/03 22:50:25;;;;;;;;;;;13.80;82.40;;;;;;4944603;29;19899;-96
2023/05/03 22:52:57;;;;;;;;;;;13.70;81.80;;;;;;4947367;29;19895;-96
2023/05/03 22:55:33;;;;;;;;;;;13.80;82.20;;;;;;4962897;29;19910;-96
2023/05/03 22:58:15;;;;;;;;;;;13.70;82.10;;;;;;4961772;28;19907;-96
2023/05/03 23:00:45;;;;;;;;;;;13.70;81.60;;;;;;4946490;29;19919;-96
2023/05/03 23:03:13;;;;;;;;;;;13.70;83.00;;;;;;4946407;29;19974;-96
2023/05/03 23:05:52;;;;;;;;;;;13.60;83.50;;;;;;4946436;29;19918;-96
2023/05/03 23:08:26;;;;;;;;;;;13.60;83.40;;;;;;4962749;29;19915;-96
2023/05/03 23:11:03;;;;;;;;;;;13.60;83.50;;;;;;4947365;29;19907;-96
2023/05/03 23:13:34;;;;;;;;;;;13.60;84.60;;;;;;4946103;29;19978;-96
2023/05/03 23:16:11;;;;;;;;;;;13.50;85.10;;;;;;4930654;29;19903;-96
2023/05/03 23:18:39;;;;;;;;;;;13.50;85.10;;;;;;4962863;29;19922;-96
2023/05/03 23:21:10;;;;;;;;;;;13.70;84.80;;;;;;4946447;29;19944;-96
2023/05/03 23:23:53;;;;;;;;;;;;;;;;;;;;;
2023/05/03 23:26:39;;;;;;;;;;;13.70;83.60;;;;;;4963184;29;19911;-96
2023/05/03 23:29:12;;;;;;;;;;;13.60;83.30;;;;;;4960341;29;19911;-96
2023/05/03 23:31:40;;;;;;;;;;;13.60;83.50;;;;;;4962905;29;19911;-96
2023/05/03 23:34:15;;;;;;;;;;;13.50;83.90;;;;;;4962477;29;19903;-96
2023/05/03 23:36:51;;;;;;;;;;;13.50;84.20;;;;;;4946581;29;19950;-96
2023/05/03 23:39:19;;;;;;;;;;;13.50;84.30;;;;;;4946481;29;19911;-96
2023/05/03 23:41:50;;;;;;;;;;;13.40;84.70;;;;;;4946555;29;19982;-96
2023/05/03 23:44:35;;;;;;;;;;;13.40;84.50;;;;;;4946130;29;19915;-96
2023/05/03 23:47:08;;;;;;;;;;;13.40;84.50;;;;;;4945881;29;19895;-96
2023/05/03 23:49:42;;;;;;;;;;;13.30;84.70;;;;;;4946191;29;19895;-96
2023/05/03 23:52:18;;;;;;;;;;;13.30;85.00;;;;;;4946385;29;19895;-96
